createdAt,value
2019-06-20T06:45:35.908Z,100314.24
2019-06-20T06:48:07.912Z,100318.87
2019-06-20T06:50:40.049Z,100313.50
2019-06-20T06:53:11.997Z,100309.05
2019-06-20T06:55:44.175Z,100308.27
2019-06-20T06:58:16.550Z,100313.90
2019-06-20T07:00:48.614Z,100312.31
2019-06-20T07:03:20.679Z,100317.39
2019-06-20T07:05:52.893Z,100315.25
2019-06-20T07:08:25.118Z,100310.97
2019-06-20T07:10:57.087Z,100308.75
2019-06-20T07:13:30.437Z,100317.20
2019-06-20T07:16:03.465Z,100309.34
2019-06-20T07:18:35.749Z,100309.56
2019-06-20T07:21:07.607Z,100304.32
2019-06-20T07:23:39.660Z,100308.81
2019-06-20T07:26:11.828Z,100301.75
2019-06-20T07:28:43.790Z,100309.73
2019-06-20T07:31:15.552Z,100304.80
2019-06-20T07:33:47.614Z,100302.41
2019-06-20T07:36:19.476Z,100300.30
2019-06-20T07:38:51.848Z,100299.70
2019-06-20T07:41:24.061Z,100305.18
2019-06-20T07:43:56.187Z,100302.95
2019-06-20T07:46:28.260Z,100302.73
2019-06-20T07:49:01.791Z,100302.55
2019-06-20T07:51:33.823Z,100299.53
2019-06-20T07:54:06.094Z,100288.87
2019-06-20T07:56:38.515Z,100295.63
2019-06-20T07:59:10.936Z,100307.91
2019-06-20T08:01:43.124Z,100298.44
2019-06-20T08:04:15.267Z,100300.54
2019-06-20T08:06:48.538Z,100295.48
2019-06-20T08:09:22.164Z,100293.50
2019-06-20T08:11:54.225Z,100287.83
2019-06-20T08:14:26.294Z,100289.52
2019-06-20T08:16:58.457Z,100287.23
2019-06-20T08:19:30.417Z,100288.96
2019-06-20T08:22:02.512Z,100287.55
2019-06-20T08:24:34.752Z,100275.35
2019-06-20T08:27:06.803Z,100286.97
2019-06-20T08:29:38.652Z,100289.16
2019-06-20T08:32:10.367Z,100295.73
2019-06-20T08:38:38.601Z,100282.22
2019-06-20T08:41:10.705Z,100284.19
2019-06-20T08:43:43.080Z,100287.87
2019-06-20T08:46:14.964Z,100287.83
2019-06-20T08:48:46.998Z,100287.52
2019-06-20T08:51:19.174Z,100285.82
2019-06-20T08:53:51.240Z,100283.16
2019-06-20T08:56:23.376Z,100284.39
2019-06-20T08:58:57.001Z,100292.34
2019-06-20T09:01:29.778Z,100289.45
2019-06-20T09:06:34.051Z,100283.55
2019-06-20T09:09:07.337Z,100280.87
2019-06-20T09:11:39.451Z,100280.36
2019-06-20T09:14:11.552Z,100277.17
2019-06-20T09:16:43.819Z,100279.89
2019-06-20T09:19:15.888Z,100283.03
2019-06-20T09:21:48.170Z,100280.63
2019-06-20T09:24:20.136Z,100276.77
2019-06-20T09:26:52.758Z,100281.08
2019-06-20T09:29:38.338Z,100291.27
2019-06-20T09:32:00.037Z,100284.98
2019-06-20T09:34:32.992Z,100288.08
2019-06-20T09:37:05.162Z,100274.37
2019-06-20T09:39:37.228Z,100277.64
2019-06-20T09:42:10.008Z,100280.18
2019-06-20T09:44:42.176Z,100285.82
2019-06-20T09:47:14.042Z,100283.58
2019-06-20T09:49:49.190Z,100283.35
2019-06-20T09:52:19.395Z,100285.48
2019-06-20T09:54:53.864Z,100279.84
2019-06-20T09:57:25.881Z,100281.83
2019-06-20T10:00:07.693Z,100277.80
2019-06-20T10:02:31.661Z,100278.13
2019-06-20T10:05:05.866Z,100278.67
2019-06-20T10:07:37.944Z,100275.00
2019-06-20T10:10:11.643Z,100276.50
2019-06-20T10:12:43.510Z,100275.41
2019-06-20T10:15:24.947Z,100270.27
2019-06-20T10:17:56.973Z,100271.34
2019-06-20T10:20:29.039Z,100267.41
2019-06-20T10:23:01.310Z,100264.26
2019-06-20T10:25:33.382Z,100259.81
2019-06-20T10:28:05.757Z,100257.19
2019-06-20T10:30:37.823Z,100262.39
2019-06-20T10:33:09.585Z,100266.91
2019-06-20T10:35:41.757Z,100259.42
2019-06-20T10:38:13.931Z,100258.10
2019-06-20T10:40:46.389Z,100261.59
2019-06-20T10:43:19.409Z,100249.84
2019-06-20T10:45:52.376Z,100258.06
2019-06-20T10:48:24.390Z,100263.58
2019-06-20T10:50:58.068Z,100262.48
2019-06-20T10:53:30.142Z,100262.25
2019-06-20T10:56:02.204Z,100263.09
2019-06-20T10:58:34.283Z,100257.28
2019-06-20T11:01:06.439Z,100262.32
2019-06-20T11:03:39.280Z,100257.30
2019-06-20T11:06:12.010Z,100260.86
2019-06-20T11:08:45.145Z,100260.42
2019-06-20T11:11:17.181Z,100253.27
2019-06-20T11:13:49.136Z,100254.23
2019-06-20T11:16:21.514Z,100255.13
2019-06-20T11:18:53.784Z,100256.88
2019-06-20T11:21:25.547Z,100255.22
2019-06-20T11:23:57.716Z,100256.00
2019-06-20T11:26:29.681Z,100254.28
2019-06-20T11:29:01.870Z,100247.66
2019-06-20T11:31:33.926Z,100247.56
2019-06-20T11:34:05.796Z,100253.92
2019-06-20T11:36:38.690Z,100248.30
2019-06-20T11:39:10.953Z,100246.00
2019-06-20T11:41:43.684Z,100254.47
2019-06-20T11:44:15.506Z,100247.91
2019-06-20T11:46:47.465Z,100248.23
2019-06-20T11:49:19.441Z,100242.30
2019-06-20T11:51:51.502Z,100252.25
2019-06-20T11:54:23.550Z,100241.51
2019-06-20T11:56:55.640Z,100241.27
2019-06-20T11:59:28.017Z,100245.28
2019-06-20T12:02:00.082Z,100240.09
2019-06-20T12:04:31.951Z,100248.58
2019-06-20T12:07:04.324Z,100247.66
2019-06-20T12:09:36.605Z,100244.02
2019-06-20T12:12:08.563Z,100244.88
2019-06-20T12:14:42.517Z,100238.45
2019-06-20T12:17:14.174Z,100234.46
2019-06-20T12:19:46.728Z,100230.74
2019-06-20T12:22:18.693Z,100240.85
2019-06-20T12:24:50.852Z,100243.83
2019-06-20T12:27:22.931Z,100236.39
2019-06-20T12:29:55.111Z,100222.91
2019-06-20T12:32:27.376Z,100223.59
2019-06-20T12:34:59.752Z,100226.70
2019-06-20T12:37:31.813Z,100228.64
2019-06-20T12:40:06.955Z,100224.70
2019-06-20T12:42:41.234Z,100220.37
2019-06-20T12:45:12.959Z,100219.31
2019-06-20T12:47:46.106Z,100222.90
2019-06-20T12:50:18.299Z,100221.77
2019-06-20T12:52:50.461Z,100221.08
2019-06-20T12:55:22.330Z,100226.86
2019-06-20T12:57:54.389Z,100208.69
2019-06-20T13:00:26.665Z,100214.39
2019-06-20T13:02:58.424Z,100216.56
2019-06-20T13:05:30.192Z,100217.77
2019-06-20T13:08:02.578Z,100214.68
2019-06-20T13:10:34.637Z,100212.78
2019-06-20T13:13:06.915Z,100215.18
2019-06-20T13:15:39.401Z,100208.62
2019-06-20T13:18:12.601Z,100213.67
2019-06-20T13:20:44.551Z,100193.90
2019-06-20T13:23:16.614Z,100202.30
2019-06-20T13:25:48.999Z,100193.41
2019-06-20T13:28:20.869Z,100200.34
2019-06-20T13:30:53.031Z,100202.58
2019-06-20T13:33:25.311Z,100194.83
2019-06-20T13:35:57.108Z,100191.91
2019-06-20T13:38:29.347Z,100192.50
2019-06-20T13:41:01.513Z,100189.01
2019-06-20T13:43:33.585Z,100196.55
2019-06-20T13:46:05.582Z,100187.95
2019-06-20T13:48:38.895Z,100184.69
2019-06-20T13:51:11.426Z,100183.55
2019-06-20T13:53:44.228Z,100187.83
2019-06-20T13:56:16.167Z,100186.17
2019-06-20T13:58:48.824Z,100184.23
2019-06-20T14:01:20.724Z,100189.63
2019-06-20T14:03:53.022Z,100176.76
2019-06-20T14:06:24.873Z,100178.82
2019-06-20T14:08:56.823Z,100177.58
2019-06-20T14:11:28.791Z,100176.25
2019-06-20T14:14:00.963Z,100180.28
2019-06-20T14:16:33.137Z,100185.23
2019-06-20T14:19:05.204Z,100191.89
2019-06-20T14:21:37.063Z,100183.52
2019-06-20T14:24:09.138Z,100184.95
2019-06-20T14:26:43.382Z,100188.59
2019-06-20T14:29:14.708Z,100186.41
2019-06-20T14:31:49.142Z,100189.70
2019-06-20T14:34:22.219Z,100198.16
2019-06-20T14:36:54.107Z,100198.34
2019-06-20T14:39:25.973Z,100195.47
2019-06-20T14:41:58.119Z,100195.97
2019-06-20T14:44:30.288Z,100201.70
2019-06-20T14:47:02.257Z,100197.67
2019-06-20T14:49:34.174Z,100194.88
2019-06-20T14:52:05.983Z,100198.19
2019-06-20T14:54:38.256Z,100206.19
2019-06-20T14:57:10.330Z,100202.63
2019-06-20T14:59:43.149Z,100205.60
2019-06-20T15:02:15.902Z,100199.77
2019-06-20T15:04:48.067Z,100206.84
2019-06-20T15:07:20.240Z,100200.42
2019-06-20T15:09:53.233Z,100198.78
2019-06-20T15:12:25.211Z,100200.81
2019-06-20T15:14:57.367Z,100193.67
2019-06-20T15:17:29.438Z,100194.53
2019-06-20T15:20:01.712Z,100193.37
2019-06-20T15:22:33.782Z,100188.89
2019-06-20T15:25:06.946Z,100207.25
2019-06-20T15:27:38.739Z,100199.28
2019-06-20T15:30:10.813Z,100195.73
2019-06-20T15:32:55.595Z,100200.00
2019-06-20T15:35:17.185Z,100212.44
2019-06-20T15:37:51.616Z,100204.59
2019-06-20T15:40:23.892Z,100191.69
2019-06-20T15:42:56.974Z,100204.59
2019-06-20T15:45:29.765Z,100195.69
2019-06-20T15:48:01.751Z,100201.57
2019-06-20T15:51:02.071Z,100199.73
2019-06-20T15:53:36.134Z,100202.20
2019-06-20T15:56:08.540Z,100202.38
2019-06-20T15:58:40.612Z,100200.34
2019-06-20T16:01:12.474Z,100200.58
2019-06-20T16:03:44.446Z,100195.73
2019-06-20T16:06:16.513Z,100196.63
2019-06-20T16:08:48.475Z,100195.94
2019-06-20T16:11:20.651Z,100186.66
2019-06-20T16:13:52.616Z,100188.78
2019-06-20T16:16:24.778Z,100192.65
2019-06-20T16:18:56.958Z,100188.11
2019-06-20T16:21:29.128Z,100183.25
2019-06-20T16:24:00.992Z,100187.12
2019-06-20T16:26:33.047Z,100185.63
2019-06-20T16:29:06.830Z,100189.23
2019-06-20T16:31:39.332Z,100180.00
2019-06-20T16:34:11.199Z,100187.12
2019-06-20T16:36:43.258Z,100183.61
2019-06-20T16:39:15.499Z,100180.52
2019-06-20T16:41:47.606Z,100177.71
2019-06-20T16:44:21.772Z,100181.81
2019-06-20T16:46:53.881Z,100185.52
2019-06-20T16:49:25.649Z,100188.98
2019-06-20T16:51:57.742Z,100187.66
2019-06-20T16:54:29.700Z,100189.55
2019-06-20T16:57:01.842Z,100190.47
2019-06-20T16:59:34.118Z,100195.52
2019-06-20T17:02:06.101Z,100196.91
2019-06-20T17:04:37.814Z,100197.47
2019-06-20T17:07:09.627Z,100197.44
2019-06-20T17:09:41.661Z,100194.19
2019-06-20T17:12:13.507Z,100196.69
2019-06-20T17:14:45.300Z,100193.18
2019-06-20T17:17:18.103Z,100191.28
2019-06-20T17:19:50.151Z,100189.49
2019-06-20T17:22:22.217Z,100187.77
2019-06-20T17:24:54.211Z,100191.73
2019-06-20T17:27:26.366Z,100188.48
2019-06-20T17:29:58.223Z,100195.91
2019-06-20T17:32:30.721Z,100193.58
2019-06-20T17:35:02.964Z,100198.46
2019-06-20T17:37:34.832Z,100192.40
2019-06-20T17:40:08.840Z,100190.89
2019-06-20T17:42:40.726Z,100199.84
2019-06-20T17:45:13.628Z,100194.66
2019-06-20T17:47:45.550Z,100199.17
2019-06-20T17:50:17.718Z,100200.06
2019-06-20T17:52:49.693Z,100196.95
2019-06-20T17:55:22.207Z,100200.66
2019-06-20T17:57:54.328Z,100206.78
2019-06-20T18:00:26.295Z,100207.03
2019-06-20T18:02:58.572Z,100205.97
2019-06-20T18:05:31.650Z,100202.05
2019-06-20T18:08:14.492Z,100199.91
2019-06-20T18:10:37.433Z,100209.42
2019-06-20T18:13:09.432Z,100209.75
2019-06-20T18:15:41.576Z,100220.98
2019-06-20T18:18:13.538Z,100221.55
2019-06-20T18:20:45.445Z,100219.80
2019-06-20T18:23:17.470Z,100225.36
2019-06-20T18:25:49.950Z,100223.72
2019-06-20T18:28:22.246Z,100224.56
2019-06-20T18:30:54.706Z,100224.19
2019-06-20T18:33:26.977Z,100222.78
2019-06-20T18:35:58.942Z,100233.44
2019-06-20T18:38:31.246Z,100230.63
2019-06-20T18:41:03.319Z,100233.52
2019-06-20T18:43:35.442Z,100237.66
2019-06-20T18:46:07.612Z,100240.97
2019-06-20T18:48:39.466Z,100245.05
2019-06-20T18:51:11.429Z,100241.83
2019-06-20T18:53:43.815Z,100238.41
2019-06-20T18:56:15.773Z,100240.59
2019-06-20T18:58:47.937Z,100236.03
2019-06-20T19:01:20.031Z,100238.61
2019-06-20T19:03:52.391Z,100243.28
2019-06-20T19:06:35.553Z,100242.47
2019-06-20T19:08:58.053Z,100238.80
2019-06-20T19:11:30.433Z,100243.34
2019-06-20T19:14:03.735Z,100239.57
2019-06-20T19:16:36.041Z,100237.27
2019-06-20T19:19:08.076Z,100244.33
2019-06-20T19:21:40.440Z,100242.09
2019-06-20T19:24:12.298Z,100239.95
2019-06-20T19:26:44.369Z,100241.50
2019-06-20T19:29:16.329Z,100240.33
2019-06-20T19:31:48.305Z,100240.78
2019-06-20T19:34:20.469Z,100246.24
2019-06-20T19:36:52.747Z,100243.20
2019-06-20T19:39:25.118Z,100241.80
2019-06-20T19:41:57.103Z,100245.23
2019-06-20T19:44:29.049Z,100247.72
2019-06-20T19:47:01.221Z,100253.41
2019-06-20T19:49:33.698Z,100249.81
2019-06-20T19:52:05.869Z,100242.42
2019-06-20T19:54:38.244Z,100245.59
2019-06-20T19:57:10.314Z,100251.06
2019-06-20T19:59:42.282Z,100252.58
2019-06-20T20:02:14.461Z,100250.98
2019-06-20T20:04:46.635Z,100249.36
2019-06-20T20:07:18.741Z,100253.67
2019-06-20T20:09:51.081Z,100254.12
2019-06-20T20:12:23.345Z,100250.67
2019-06-20T20:14:55.317Z,100254.84
2019-06-20T20:17:27.389Z,100259.27
2019-06-20T20:19:59.250Z,100261.96
2019-06-20T20:22:31.319Z,100258.08
2019-06-20T20:25:06.155Z,100259.36
2019-06-20T20:27:37.851Z,100259.89
2019-06-20T20:30:13.023Z,100271.05
2019-06-20T20:32:45.332Z,100269.35
2019-06-20T20:35:31.555Z,100271.03
2019-06-20T20:37:51.906Z,100278.05
2019-06-20T20:40:25.066Z,100284.02
2019-06-20T20:42:57.391Z,100283.57
2019-06-20T20:45:29.260Z,100282.52
2019-06-20T20:48:01.625Z,100283.48
2019-06-20T20:50:33.593Z,100293.58
2019-06-20T20:53:05.463Z,100291.32
2019-06-20T20:55:37.431Z,100292.70
2019-06-20T20:58:09.796Z,100295.07
2019-06-20T21:00:59.783Z,100301.72
2019-06-20T21:03:31.852Z,100308.37
2019-06-20T21:06:03.847Z,100300.56
2019-06-20T21:08:35.625Z,100305.81
2019-06-20T21:11:07.437Z,100307.42
2019-06-20T21:13:39.614Z,100309.99
2019-06-20T21:16:11.577Z,100320.40
2019-06-20T21:18:43.440Z,100329.20
2019-06-20T21:21:15.714Z,100328.98
2019-06-20T21:23:47.801Z,100328.54
2019-06-20T21:26:19.959Z,100331.55
2019-06-20T21:28:52.032Z,100335.08
2019-06-20T21:31:24.608Z,100336.14
2019-06-20T21:33:57.280Z,100335.61
2019-06-20T21:36:29.159Z,100335.83
2019-06-20T21:39:01.322Z,100337.84
2019-06-20T21:41:35.133Z,100329.98
2019-06-20T21:44:07.310Z,100337.56
2019-06-20T21:46:39.372Z,100343.44
2019-06-20T21:49:11.747Z,100351.70
2019-06-20T21:51:44.809Z,100355.22
2019-06-20T21:54:16.815Z,100354.34
2019-06-20T21:56:48.986Z,100355.66
2019-06-20T21:59:20.837Z,100358.87
2019-06-20T22:01:54.142Z,100351.14
2019-06-20T22:04:26.112Z,100348.27
2019-06-20T22:06:58.380Z,100357.67
2019-06-20T22:09:30.453Z,100349.09
2019-06-20T22:12:02.757Z,100355.31
2019-06-20T22:14:34.994Z,100350.17
2019-06-20T22:17:07.060Z,100343.07
2019-06-20T22:19:40.165Z,100347.84
2019-06-20T22:22:12.495Z,100348.03
2019-06-20T22:24:44.403Z,100351.88
2019-06-20T22:27:16.773Z,100350.91
2019-06-20T22:29:48.677Z,100354.20
2019-06-20T22:32:21.115Z,100346.07
2019-06-20T22:34:53.386Z,100349.95
2019-06-20T22:37:25.354Z,100343.86
2019-06-20T22:39:57.422Z,100347.70
2019-06-20T22:42:29.592Z,100342.11
2019-06-20T22:45:01.814Z,100337.11
2019-06-20T22:47:33.738Z,100338.06
2019-06-20T22:50:10.205Z,100336.14
2019-06-20T22:52:42.168Z,100338.17
2019-06-20T22:55:14.541Z,100336.95
2019-06-20T22:57:46.607Z,100339.58
2019-06-20T23:00:18.788Z,100343.95
2019-06-20T23:02:50.856Z,100344.81
2019-06-20T23:05:23.021Z,100343.55
2019-06-20T23:07:55.099Z,100350.04
2019-06-20T23:10:27.263Z,100349.62
2019-06-20T23:12:59.639Z,100351.22
2019-06-20T23:15:31.636Z,100348.96
2019-06-20T23:18:03.468Z,100346.70
2019-06-20T23:20:35.646Z,100348.73
2019-06-20T23:23:07.503Z,100343.76
2019-06-20T23:25:41.218Z,100349.75
2019-06-20T23:28:13.281Z,100352.45
2019-06-20T23:30:45.447Z,100352.31
2019-06-20T23:33:17.622Z,100348.87
2019-06-20T23:35:49.994Z,100353.61
2019-06-20T23:38:21.976Z,100355.28
2019-06-20T23:40:54.146Z,100354.39
2019-06-20T23:43:26.414Z,100353.48
2019-06-20T23:45:58.580Z,100354.59
2019-06-20T23:48:33.452Z,100356.23
2019-06-20T23:51:04.668Z,100353.45
2019-06-20T23:53:36.835Z,100364.73
2019-06-20T23:56:08.667Z,100363.48
2019-06-20T23:58:41.281Z,100364.93
